Impacts TAF Board INFO
FOR SITUATIONAL AWARENESS. NOT TO BE USED FOR FLIGHT PLANNING PURPOSES.
IDs:

KPIT - Pittsburgh Intl, PA, US

Issued at 1722 UTC 19 Oct 2017
Updated at 1811 UTC 19 Oct 2017
Potential Impact None Slight Moderate High
Time1751Z 19/19Z 19/20Z 19/21Z 19/22Z 19/23Z 20/00Z 20/01Z 20/02Z 20/03Z 20/04Z 20/05Z 20/06Z 20/07Z>>
Type OBS PRVL PRVL PRVL PRVL PRVL PRVL PRVL PRVL PRVL PRVL PRVL PRVL PRVL
VIS 10 >6 >6 >6 >6 >6 >6 >6 >6 >6 >6 >6 >6 >6
CIG 250 -- -- -- -- -- -- -- -- -- -- -- -- --
Cover BKN SCT SCT SCT SCT SCT SKC SKC SKC SKC SKC SKC SKC SKC
FltCat VFR VFR VFR VFR VFR VFR VFR VFR VFR VFR VFR VFR VFR VFR
WX -- -- -- -- -- -- -- -- -- -- -- -- -- --
WDir 250 230 230 230 230 230 230 230 230 230 230 230 230 230
WSpd 12 10 10 10 10 10 6 6 6 6 6 6 6 6
WGst -- 17 17 17 17 17 -- -- -- -- -- -- -- --

Raw TAF
KPIT 191722Z 1918/2024 23010G17KT P6SM SCT250
  FM200000 23006KT P6SM SKC


Raw METAR
KPIT 191751Z 25012KT 10SM BKN250 19/08 A3019 RMK AO2 SLP230 T01940078 10194 20056 58013
KPIT 191651Z 24008G16KT 10SM SCT250 19/08 A3021 RMK AO2 SLP237 T01890078
KPIT 191551Z 25009KT 10SM BKN250 18/08 A3023 RMK AO2 SLP241 T01830078

METAR Board
Radar Display
Forecast Discussion

FOR SITUATIONAL AWARENESS. NOT TO BE USED FOR FLIGHT PLANNING PURPOSES.